createdAt,value
2023-04-17T00:01:20.938Z,13.90
2023-04-17T00:03:48.472Z,14.00
2023-04-17T00:06:16.517Z,13.87
2023-04-17T00:08:44.402Z,13.70
2023-04-17T00:11:11.842Z,13.73
2023-04-17T00:13:39.307Z,13.33
2023-04-17T00:16:10.496Z,12.73
2023-04-17T00:18:37.997Z,14.47
2023-04-17T00:21:05.554Z,13.17
2023-04-17T00:23:33.318Z,12.67
2023-04-17T00:26:00.814Z,13.13
2023-04-17T00:28:28.375Z,13.23
2023-04-17T00:30:58.146Z,13.07
2023-04-17T00:33:26.976Z,13.17
2023-04-17T00:35:54.482Z,12.63
2023-04-17T00:38:21.928Z,12.87
2023-04-17T00:40:51.487Z,13.20
2023-04-17T00:43:19.098Z,13.40
2023-04-17T00:45:47.859Z,11.83
2023-04-17T00:48:17.571Z,13.37
2023-04-17T00:50:46.833Z,13.53
2023-04-17T00:53:15.270Z,13.47
2023-04-17T00:55:44.495Z,13.60
2023-04-17T00:58:12.726Z,14.87
2023-04-17T01:00:40.383Z,13.50
2023-04-17T01:03:08.479Z,14.20
2023-04-17T01:05:38.236Z,14.50
2023-04-17T01:08:07.241Z,14.47
2023-04-17T01:10:34.656Z,15.07
2023-04-17T01:13:03.124Z,14.63
2023-04-17T01:15:30.684Z,15.03
2023-04-17T01:17:58.246Z,14.40
2023-04-17T01:20:31.114Z,14.97
2023-04-17T01:22:58.929Z,15.80
2023-04-17T01:25:28.598Z,14.07
2023-04-17T01:27:56.452Z,15.77
2023-04-17T01:30:23.967Z,14.60
2023-04-17T01:32:51.675Z,15.10
2023-04-17T01:35:19.195Z,14.70
2023-04-17T01:37:46.684Z,15.60
2023-04-17T01:40:14.450Z,15.73
2023-04-17T01:42:43.281Z,17.03
2023-04-17T01:45:11.739Z,15.97
2023-04-17T01:47:39.285Z,15.87
2023-04-17T01:50:09.058Z,15.13
2023-04-17T01:52:37.011Z,14.63
2023-04-17T01:55:04.816Z,14.43
2023-04-17T01:57:33.974Z,14.30
2023-04-17T02:00:06.963Z,15.17
2023-04-17T02:02:34.513Z,14.17
2023-04-17T02:05:02.215Z,15.17
2023-04-17T02:07:29.657Z,15.80
2023-04-17T02:09:57.165Z,16.13
2023-04-17T02:12:24.657Z,14.70
2023-04-17T02:14:52.166Z,15.43
2023-04-17T02:17:20.982Z,15.30
2023-04-17T02:19:48.452Z,14.23
2023-04-17T02:22:15.934Z,15.43
2023-04-17T02:24:43.594Z,16.10
2023-04-17T02:27:11.687Z,15.93
2023-04-17T02:29:39.150Z,15.97
2023-04-17T02:32:06.651Z,16.67
2023-04-17T02:34:35.578Z,16.10
2023-04-17T02:37:03.130Z,16.77
2023-04-17T02:39:31.655Z,15.53
2023-04-17T02:41:59.242Z,15.07
2023-04-17T02:44:26.715Z,14.50
2023-04-17T02:46:54.229Z,15.30
2023-04-17T02:49:21.716Z,15.63
2023-04-17T02:51:51.024Z,14.83
2023-04-17T02:54:18.475Z,14.83
2023-04-17T02:56:46.125Z,15.47
2023-04-17T02:59:14.049Z,14.80
2023-04-17T03:01:42.399Z,14.67
2023-04-17T03:04:09.867Z,14.37
2023-04-17T03:06:37.406Z,14.87
2023-04-17T03:09:06.235Z,16.33
2023-04-17T03:11:33.780Z,15.80
2023-04-17T03:14:01.314Z,15.70
2023-04-17T03:16:28.751Z,16.17
2023-04-17T03:18:56.254Z,15.77
2023-04-17T03:21:23.807Z,16.93
2023-04-17T03:23:51.256Z,16.77
2023-04-17T03:26:20.532Z,15.97
2023-04-17T03:28:48.024Z,15.77
2023-04-17T03:31:15.898Z,16.27
2023-04-17T03:33:43.369Z,16.07
2023-04-17T03:36:11.368Z,16.03
2023-04-17T03:38:38.813Z,16.60
2023-04-17T03:41:06.446Z,15.67
2023-04-17T03:43:35.216Z,16.13
2023-04-17T03:46:02.833Z,15.10
2023-04-17T03:48:30.501Z,15.73
2023-04-17T03:50:57.978Z,14.97
2023-04-17T03:53:25.443Z,16.57
2023-04-17T03:55:53.020Z,15.73
2023-04-17T03:58:20.517Z,15.53
2023-04-17T04:00:50.597Z,15.60
2023-04-17T04:03:18.231Z,14.93
2023-04-17T04:05:46.037Z,15.43
2023-04-17T04:08:13.457Z,14.93
2023-04-17T04:10:44.015Z,14.90
2023-04-17T04:13:11.596Z,15.27
2023-04-17T04:15:39.212Z,13.43
2023-04-17T04:18:08.119Z,14.83
2023-04-17T04:20:35.896Z,14.03
2023-04-17T04:23:04.451Z,14.37
2023-04-17T04:25:32.382Z,14.63
2023-04-17T04:28:01.528Z,15.63
2023-04-17T04:30:30.544Z,14.37
2023-04-17T04:33:01.106Z,14.27
2023-04-17T04:35:30.261Z,13.97
2023-04-17T04:38:02.085Z,15.67
2023-04-17T04:40:30.673Z,15.30
2023-04-17T04:42:58.432Z,14.33
2023-04-17T04:45:26.035Z,14.93
2023-04-17T04:47:53.636Z,15.00
2023-04-17T04:50:21.283Z,13.63
2023-04-17T04:52:50.209Z,13.93
2023-04-17T04:55:19.668Z,14.67
2023-04-17T04:57:47.151Z,13.67
2023-04-17T05:00:17.254Z,13.37
2023-04-17T05:02:44.987Z,14.20
2023-04-17T05:05:12.492Z,12.73
2023-04-17T05:07:39.928Z,13.33
2023-04-17T05:10:10.388Z,14.23
2023-04-17T05:12:37.845Z,13.87
2023-04-17T05:15:06.286Z,14.23
2023-04-17T05:17:33.762Z,14.00
2023-04-17T05:20:01.195Z,13.53
2023-04-17T05:22:28.632Z,13.97
2023-04-17T05:24:56.138Z,13.30
2023-04-17T05:27:26.706Z,13.47
2023-04-17T05:29:54.254Z,12.87
2023-04-17T05:32:21.780Z,13.33
2023-04-17T05:34:49.485Z,13.07
2023-04-17T05:37:17.051Z,13.93
2023-04-17T05:39:44.493Z,13.40
2023-04-17T05:42:11.919Z,13.13
2023-04-17T05:44:40.762Z,13.70
2023-04-17T05:47:08.216Z,11.70
2023-04-17T05:49:36.147Z,13.00
2023-04-17T05:52:03.661Z,13.70
2023-04-17T05:54:31.218Z,12.27
2023-04-17T05:56:58.682Z,12.77
2023-04-17T05:59:27.130Z,12.47
2023-04-17T06:01:56.010Z,13.53
2023-04-17T06:04:23.836Z,13.00
2023-04-17T06:06:51.574Z,13.07
2023-04-17T06:09:19.211Z,12.53
2023-04-17T06:11:46.715Z,11.63
2023-04-17T06:14:14.220Z,12.27
2023-04-17T06:16:41.673Z,13.40
2023-04-17T06:19:11.306Z,14.03
2023-04-17T06:21:39.037Z,12.23
2023-04-17T06:24:07.187Z,13.57
2023-04-17T06:26:34.791Z,13.77
2023-04-17T06:29:02.352Z,14.07
2023-04-17T06:31:29.918Z,14.27
2023-04-17T06:33:57.398Z,13.47
2023-04-17T06:36:27.059Z,13.57
2023-04-17T06:38:54.505Z,13.60
2023-04-17T06:41:22.319Z,13.87
2023-04-17T06:43:49.934Z,13.10
2023-04-17T06:46:17.408Z,12.67
2023-04-17T06:48:44.932Z,13.57
2023-04-17T06:51:12.372Z,13.47
2023-04-17T06:53:41.207Z,14.00
2023-04-17T06:56:08.913Z,14.20
2023-04-17T06:58:42.648Z,13.77
2023-04-17T07:01:10.160Z,13.57
2023-04-17T07:03:37.857Z,14.17
2023-04-17T07:06:05.988Z,13.17
2023-04-17T07:08:33.709Z,13.93
2023-04-17T07:11:03.008Z,14.33
2023-04-17T07:13:33.325Z,13.20
2023-04-17T07:16:01.308Z,13.33
2023-04-17T07:18:30.244Z,13.37
2023-04-17T07:20:57.799Z,13.40
2023-04-17T07:23:25.344Z,13.37
2023-04-17T07:25:52.887Z,13.30
2023-04-17T07:28:21.791Z,13.30
2023-04-17T07:30:49.424Z,13.33
2023-04-17T07:33:16.989Z,13.07
2023-04-17T07:35:44.791Z,13.13
2023-04-17T07:38:12.243Z,11.87
2023-04-17T07:40:40.052Z,13.30
2023-04-17T07:43:07.482Z,13.90
2023-04-17T07:45:38.111Z,12.87
2023-04-17T07:48:06.917Z,13.33
2023-04-17T07:50:34.709Z,12.87
2023-04-17T07:53:02.134Z,12.80
2023-04-17T07:55:29.693Z,12.93
2023-04-17T07:57:57.152Z,12.90
2023-04-17T08:00:25.676Z,12.80
2023-04-17T08:02:54.647Z,12.83
2023-04-17T08:05:23.725Z,12.57
2023-04-17T08:07:51.313Z,13.10
2023-04-17T08:10:19.918Z,12.17
2023-04-17T08:12:47.389Z,11.97
2023-04-17T08:15:14.990Z,12.33
2023-04-17T08:17:42.568Z,11.37
2023-04-17T08:20:11.793Z,11.37
2023-04-17T08:22:40.744Z,11.70
2023-04-17T08:25:09.892Z,11.97
2023-04-17T08:27:37.535Z,12.40
2023-04-17T08:30:06.388Z,12.23
2023-04-17T08:32:38.913Z,12.10
2023-04-17T08:35:07.593Z,12.00
2023-04-17T08:37:36.540Z,11.50
2023-04-17T08:40:04.709Z,12.47
2023-04-17T08:42:35.654Z,10.90
2023-04-17T08:45:06.182Z,11.27
2023-04-17T08:47:35.313Z,11.27
2023-04-17T08:50:08.935Z,10.33
2023-04-17T08:52:42.472Z,10.40
2023-04-17T08:55:10.634Z,9.83
2023-04-17T08:57:54.458Z,10.13
2023-04-17T09:00:26.082Z,9.20
2023-04-17T09:02:55.492Z,9.50
2023-04-17T09:05:24.029Z,8.93
2023-04-17T09:08:07.819Z,9.27
2023-04-17T09:10:39.482Z,8.93
2023-04-17T09:13:07.490Z,10.00
2023-04-17T09:15:35.761Z,9.27
2023-04-17T09:18:03.391Z,10.03
2023-04-17T09:20:31.073Z,10.30
2023-04-17T09:23:02.492Z,9.23
2023-04-17T09:25:31.024Z,9.00
2023-04-17T09:28:11.386Z,9.00
2023-04-17T09:30:39.874Z,9.53
2023-04-17T09:33:08.958Z,8.17
2023-04-17T09:35:39.869Z,8.30
2023-04-17T09:38:09.194Z,8.93
2023-04-17T09:40:41.154Z,7.23
2023-04-17T09:43:10.682Z,7.03
2023-04-17T09:45:42.485Z,6.77
2023-04-17T09:48:12.528Z,6.00
2023-04-17T09:50:40.834Z,5.67
2023-04-17T09:53:09.939Z,5.30
2023-04-17T09:55:38.745Z,6.10
2023-04-17T09:58:08.237Z,5.90
2023-04-17T10:00:38.019Z,5.23
2023-04-17T10:03:06.185Z,5.70
2023-04-17T10:05:33.870Z,6.40
2023-04-17T10:08:01.657Z,6.40
2023-04-17T10:10:33.945Z,6.17
2023-04-17T10:13:04.040Z,6.40
2023-04-17T10:15:32.184Z,5.90
2023-04-17T10:18:21.086Z,5.67
2023-04-17T10:20:49.328Z,5.57
2023-04-17T10:23:40.538Z,5.40
2023-04-17T10:26:39.585Z,4.90
2023-04-17T10:29:07.061Z,4.80
2023-04-17T10:32:28.457Z,5.40
2023-04-17T10:34:57.980Z,4.33
2023-04-17T10:37:58.735Z,4.67
2023-04-17T10:40:30.416Z,3.93
2023-04-17T10:43:07.833Z,4.17
2023-04-17T10:45:54.221Z,3.90
2023-04-17T10:48:23.198Z,3.53
2023-04-17T10:50:50.709Z,4.20
2023-04-17T10:53:41.399Z,3.80
2023-04-17T10:56:09.415Z,3.47
2023-04-17T10:58:40.508Z,2.90
2023-04-17T11:01:12.289Z,3.07
2023-04-17T11:03:41.682Z,3.30
2023-04-17T11:06:10.138Z,3.23
2023-04-17T11:08:37.681Z,3.30
2023-04-17T11:11:05.167Z,2.97
2023-04-17T11:13:34.793Z,2.70
2023-04-17T11:16:05.796Z,2.97
2023-04-17T11:18:33.339Z,3.00
2023-04-17T11:21:01.056Z,3.00
2023-04-17T11:23:33.893Z,2.80
2023-04-17T11:26:01.606Z,2.80
2023-04-17T11:28:29.654Z,3.13
2023-04-17T11:30:57.176Z,3.03
2023-04-17T11:33:26.002Z,3.17
2023-04-17T11:35:55.245Z,3.00
2023-04-17T11:38:24.070Z,2.57
2023-04-17T11:40:52.916Z,2.80
2023-04-17T11:43:22.367Z,2.73
2023-04-17T11:45:52.894Z,2.60
2023-04-17T11:48:23.543Z,3.30
2023-04-17T11:50:56.149Z,3.00
2023-04-17T11:53:23.830Z,2.83
2023-04-17T11:56:13.296Z,3.17
2023-04-17T11:58:48.043Z,2.83
2023-04-17T12:01:15.863Z,3.40
2023-04-17T12:03:45.607Z,2.53
2023-04-17T12:06:14.916Z,2.90
2023-04-17T12:08:44.631Z,2.93
2023-04-17T12:11:25.662Z,3.40
2023-04-17T12:13:53.637Z,2.90
2023-04-17T12:16:21.733Z,2.80
2023-04-17T12:18:49.410Z,2.80
2023-04-17T12:21:19.121Z,2.63
2023-04-17T12:23:47.111Z,2.93
2023-04-17T12:26:15.178Z,3.07
2023-04-17T12:28:42.944Z,3.07
2023-04-17T12:31:10.810Z,3.07
2023-04-17T12:33:38.647Z,2.80
2023-04-17T12:36:07.399Z,3.00
2023-04-17T12:38:36.467Z,2.63
2023-04-17T12:41:03.999Z,2.73
2023-04-17T12:43:33.005Z,2.77
2023-04-17T12:46:00.688Z,2.83
2023-04-17T12:48:28.910Z,4.07
2023-04-17T12:50:57.411Z,2.90
2023-04-17T12:53:24.821Z,2.60
2023-04-17T12:55:53.593Z,3.03
2023-04-17T12:58:21.154Z,2.40
2023-04-17T13:00:48.669Z,2.73
2023-04-17T13:03:16.314Z,3.10
2023-04-17T13:05:44.408Z,2.57
2023-04-17T13:08:14.907Z,2.50
2023-04-17T13:10:42.695Z,2.97
2023-04-17T13:13:11.802Z,2.60
2023-04-17T13:15:39.325Z,2.40
2023-04-17T13:18:07.972Z,2.43
2023-04-17T13:20:35.548Z,3.07
2023-04-17T13:23:03.112Z,2.90
2023-04-17T13:25:30.917Z,2.53
2023-04-17T13:27:58.711Z,2.60
2023-04-17T13:30:28.050Z,2.47
2023-04-17T13:32:55.612Z,2.70
2023-04-17T13:35:23.173Z,2.83
2023-04-17T13:37:50.616Z,2.40
2023-04-17T13:40:18.064Z,2.50
2023-04-17T13:42:45.797Z,2.60
2023-04-17T13:45:13.339Z,3.27
2023-04-17T13:47:44.453Z,3.10
2023-04-17T13:50:12.301Z,2.40
2023-04-17T13:52:39.736Z,2.83
2023-04-17T13:55:11.665Z,3.23
2023-04-17T13:57:39.628Z,2.40
2023-04-17T14:00:08.607Z,4.17
2023-04-17T14:02:36.347Z,2.60
2023-04-17T14:05:05.957Z,2.93
2023-04-17T14:07:33.484Z,2.67
2023-04-17T14:10:00.968Z,2.77
2023-04-17T14:12:28.439Z,2.67
2023-04-17T14:14:57.659Z,3.27
2023-04-17T14:17:25.970Z,3.33
2023-04-17T14:19:53.470Z,3.50
2023-04-17T14:22:22.293Z,4.70
2023-04-17T14:24:49.858Z,3.33
2023-04-17T14:27:17.402Z,3.92
2023-04-17T14:29:44.926Z,3.38
2023-04-17T14:32:12.535Z,3.13
2023-04-17T14:34:40.062Z,3.10
2023-04-17T14:37:07.551Z,3.20
2023-04-17T14:39:36.421Z,2.83
2023-04-17T14:42:03.976Z,4.65
2023-04-17T14:44:31.488Z,3.55
2023-04-17T14:46:59.329Z,2.60
2023-04-17T14:49:27.007Z,2.88
2023-04-17T14:51:54.491Z,3.07
2023-04-17T14:54:22.143Z,3.20
2023-04-17T14:56:51.197Z,3.40
2023-04-17T14:59:18.792Z,2.83
2023-04-17T15:01:46.564Z,2.63
2023-04-17T15:04:14.310Z,2.80
2023-04-17T15:06:42.791Z,2.80
2023-04-17T15:09:10.694Z,5.23
2023-04-17T15:11:38.456Z,4.27
2023-04-17T15:14:07.310Z,4.93
2023-04-17T15:16:34.931Z,3.53
2023-04-17T15:19:02.432Z,3.73
2023-04-17T15:21:29.897Z,3.87
2023-04-17T15:23:57.385Z,3.17
2023-04-17T15:26:25.549Z,3.23
2023-04-17T15:28:53.036Z,3.87
2023-04-17T15:31:21.997Z,3.13
2023-04-17T15:33:49.519Z,3.40
2023-04-17T15:36:17.372Z,4.20
2023-04-17T15:38:44.946Z,4.13
2023-04-17T15:41:12.448Z,3.67
2023-04-17T15:43:40.001Z,4.37
2023-04-17T15:46:07.691Z,4.30
2023-04-17T15:48:36.477Z,4.27
2023-04-17T15:51:04.596Z,3.20
2023-04-17T15:53:32.899Z,4.37
2023-04-17T15:56:00.560Z,3.03
2023-04-17T15:58:28.099Z,7.37
2023-04-17T16:00:55.829Z,4.03
2023-04-17T16:03:23.351Z,3.73
2023-04-17T16:05:53.975Z,4.17
2023-04-17T16:08:21.870Z,4.70
2023-04-17T16:10:49.358Z,3.87
2023-04-17T16:13:16.841Z,3.10
2023-04-17T16:15:44.957Z,5.83
2023-04-17T16:18:12.915Z,3.30
2023-04-17T16:20:40.380Z,3.07
2023-04-17T16:23:09.223Z,3.07
2023-04-17T16:25:36.740Z,3.30
2023-04-17T16:28:04.274Z,3.33
2023-04-17T16:30:31.981Z,3.47
2023-04-17T16:32:59.432Z,4.37
2023-04-17T16:35:26.996Z,4.27
2023-04-17T16:37:54.554Z,4.10
2023-04-17T16:40:23.324Z,4.13
2023-04-17T16:42:50.833Z,3.80
2023-04-17T16:45:18.506Z,4.50
2023-04-17T16:47:46.103Z,3.43
2023-04-17T16:50:13.837Z,3.30
2023-04-17T16:52:41.662Z,3.80
2023-04-17T16:55:10.160Z,3.43
2023-04-17T16:57:40.650Z,3.50
2023-04-17T17:00:11.705Z,5.13
2023-04-17T17:02:39.315Z,3.90
2023-04-17T17:05:10.032Z,3.50
2023-04-17T17:07:37.530Z,3.20
2023-04-17T17:10:05.780Z,4.70
2023-04-17T17:12:33.577Z,4.93
2023-04-17T17:15:03.458Z,5.57
2023-04-17T17:17:31.452Z,3.30
2023-04-17T17:19:58.976Z,3.60
2023-04-17T17:22:26.712Z,3.67
2023-04-17T17:24:55.978Z,4.07
2023-04-17T17:27:23.525Z,4.90
2023-04-17T17:29:50.980Z,5.23
2023-04-17T17:32:19.972Z,4.40
2023-04-17T17:34:47.535Z,4.10
2023-04-17T17:37:15.000Z,3.50
2023-04-17T17:39:42.480Z,3.47
2023-04-17T17:42:10.132Z,3.90
2023-04-17T17:44:37.658Z,3.90
2023-04-17T17:47:07.516Z,4.07
2023-04-17T17:49:36.819Z,3.87
2023-04-17T17:52:04.526Z,4.20
2023-04-17T17:54:35.893Z,4.70
2023-04-17T17:57:03.695Z,4.00
2023-04-17T17:59:31.230Z,3.77
2023-04-17T18:02:00.809Z,3.90
2023-04-17T18:04:28.798Z,4.17
2023-04-17T18:06:57.752Z,4.33
2023-04-17T18:09:25.304Z,4.17
2023-04-17T18:11:53.033Z,4.07
2023-04-17T18:14:20.542Z,6.80
2023-04-17T18:16:48.625Z,5.07
2023-04-17T18:19:16.154Z,5.67
2023-04-17T18:21:45.378Z,5.43
2023-04-17T18:24:15.609Z,6.97
2023-04-17T18:26:43.225Z,5.50
2023-04-17T18:29:10.683Z,4.10
2023-04-17T18:31:38.246Z,4.40
2023-04-17T18:34:05.677Z,4.53
2023-04-17T18:36:33.274Z,4.47
2023-04-17T18:39:00.786Z,5.00
2023-04-17T18:41:29.604Z,4.40
2023-04-17T18:43:57.088Z,4.77
2023-04-17T18:46:26.868Z,4.37
2023-04-17T18:48:54.432Z,3.67
2023-04-17T18:51:21.925Z,4.27
2023-04-17T18:53:50.183Z,3.73
2023-04-17T18:56:17.771Z,4.93
2023-04-17T18:58:46.612Z,4.47
2023-04-17T19:01:14.260Z,5.20
2023-04-17T19:03:41.750Z,3.57
2023-04-17T19:06:09.265Z,3.83
2023-04-17T19:08:39.509Z,4.60
2023-04-17T19:11:07.054Z,3.90
2023-04-17T19:13:34.557Z,4.10
2023-04-17T19:16:03.514Z,4.23
2023-04-17T19:18:31.046Z,4.80
2023-04-17T19:20:58.557Z,4.83
2023-04-17T19:23:26.252Z,4.83
2023-04-17T19:25:54.882Z,4.93
2023-04-17T19:28:22.627Z,4.67
2023-04-17T19:30:50.246Z,4.30
2023-04-17T19:33:20.183Z,4.47
2023-04-17T19:35:47.641Z,4.63
2023-04-17T19:38:17.155Z,4.27
2023-04-17T19:40:47.609Z,3.67
2023-04-17T19:43:15.085Z,3.50
2023-04-17T19:45:43.778Z,4.70
2023-04-17T19:48:11.378Z,4.70
2023-04-17T19:50:40.160Z,4.83
2023-04-17T19:53:07.614Z,6.23
2023-04-17T19:55:35.100Z,4.27
2023-04-17T19:58:02.601Z,6.27
2023-04-17T20:00:29.991Z,4.80
2023-04-17T20:02:57.481Z,4.87
2023-04-17T20:05:25.152Z,4.20
2023-04-17T20:07:53.968Z,4.50
2023-04-17T20:10:21.616Z,4.60
2023-04-17T20:12:49.180Z,3.77
2023-04-17T20:15:19.670Z,5.03
2023-04-17T20:17:47.203Z,3.57
2023-04-17T20:20:14.782Z,4.90
2023-04-17T20:22:42.303Z,4.20
2023-04-17T20:25:11.256Z,3.53
2023-04-17T20:27:38.834Z,3.63
2023-04-17T20:30:07.404Z,3.97
2023-04-17T20:32:34.887Z,4.00
2023-04-17T20:35:03.239Z,3.30
2023-04-17T20:37:30.809Z,4.90
2023-04-17T20:39:58.360Z,4.57
2023-04-17T20:42:27.169Z,3.83
2023-04-17T20:44:55.232Z,6.93
2023-04-17T20:47:22.718Z,6.93
2023-04-17T20:49:50.158Z,4.70
2023-04-17T20:52:17.657Z,5.17
2023-04-17T20:54:45.082Z,4.83
2023-04-17T20:57:12.574Z,4.60
2023-04-17T20:59:41.476Z,4.57
2023-04-17T21:02:09.288Z,3.77
2023-04-17T21:04:36.983Z,8.00
2023-04-17T21:07:04.479Z,4.63
2023-04-17T21:09:31.979Z,4.90
2023-04-17T21:11:59.447Z,4.47
2023-04-17T21:14:28.012Z,5.63
2023-04-17T21:16:58.431Z,4.70
2023-04-17T21:19:27.297Z,4.50
2023-04-17T21:21:54.987Z,5.03
2023-04-17T21:24:22.909Z,5.10
2023-04-17T21:26:50.438Z,5.37
2023-04-17T21:29:17.980Z,4.43
2023-04-17T21:31:45.474Z,5.00
2023-04-17T21:34:14.485Z,5.20
2023-04-17T21:36:42.158Z,4.77
2023-04-17T21:39:09.839Z,4.90
2023-04-17T21:41:38.401Z,4.90
2023-04-17T21:44:05.973Z,4.47
2023-04-17T21:46:33.688Z,4.80
2023-04-17T21:49:01.250Z,3.97
2023-04-17T21:51:30.360Z,4.30
2023-04-17T21:53:57.797Z,4.27
2023-04-17T21:56:25.258Z,4.40
2023-04-17T21:58:52.879Z,4.37
2023-04-17T22:01:20.413Z,5.13
2023-04-17T22:03:47.959Z,4.03
2023-04-17T22:06:15.426Z,4.13
2023-04-17T22:08:44.203Z,4.90
2023-04-17T22:11:11.711Z,5.17
2023-04-17T22:13:39.170Z,4.87
2023-04-17T22:16:07.623Z,4.60
2023-04-17T22:18:35.164Z,5.50
2023-04-17T22:21:02.934Z,5.63
2023-04-17T22:23:30.396Z,4.77
2023-04-17T22:25:59.280Z,4.73
2023-04-17T22:28:29.949Z,4.30
2023-04-17T22:30:57.911Z,4.90
2023-04-17T22:33:25.977Z,4.43
2023-04-17T22:35:53.629Z,5.33
2023-04-17T22:38:21.648Z,4.30
2023-04-17T22:40:49.504Z,5.13
2023-04-17T22:43:18.342Z,5.00
2023-04-17T22:45:45.817Z,5.10
2023-04-17T22:48:13.229Z,4.90
2023-04-17T22:50:40.875Z,6.37
2023-04-17T22:53:08.288Z,7.23
2023-04-17T22:55:36.011Z,5.30
2023-04-17T22:58:04.543Z,5.83
2023-04-17T23:00:33.362Z,6.63
2023-04-17T23:03:00.862Z,5.40
2023-04-17T23:05:28.746Z,5.30
2023-04-17T23:07:56.173Z,5.30
2023-04-17T23:10:23.588Z,4.53
2023-04-17T23:12:51.180Z,4.13
2023-04-17T23:15:18.599Z,4.80
2023-04-17T23:17:47.343Z,4.03
2023-04-17T23:20:15.008Z,4.43
2023-04-17T23:22:42.555Z,5.73
2023-04-17T23:25:10.932Z,4.00
2023-04-17T23:27:38.452Z,4.43
2023-04-17T23:30:07.397Z,6.33
2023-04-17T23:32:34.967Z,5.50
2023-04-17T23:35:04.515Z,5.40
2023-04-17T23:37:32.028Z,4.10
2023-04-17T23:40:01.208Z,4.37
2023-04-17T23:42:28.665Z,4.37
2023-04-17T23:44:56.851Z,3.93
2023-04-17T23:47:24.617Z,4.80
2023-04-17T23:49:52.078Z,4.20
2023-04-17T23:52:20.823Z,4.33
2023-04-17T23:54:48.398Z,4.50
2023-04-17T23:57:15.985Z,5.60
2023-04-17T23:59:43.509Z,4.57
